Time;durP1;ratioP1;P1;durP2;ratioP2;P2;SDS_P1;SDS_P2;PMS_P1;PMS_P2;Temp;Humidity;BMP_temperature;BMP_pressure;BME280_temperature;BME280_humidity;BME280_pressure;Samples;Min_cycle;Max_cycle;Signal;HPM_P1;HPM_P2
2022/03/09 00:02:21;;;;;;;0.80;0.80;;;-3.50;1.00;;;;;;5051725;28;20207;-75
2022/03/09 00:04:47;;;;;;;0.80;0.80;;;-3.30;99.90;;;;;;5051713;28;20210;-75
2022/03/09 00:07:13;;;;;;;0.90;0.90;;;-3.20;1.00;;;;;;5051587;28;20199;-74
2022/03/09 00:09:38;;;;;;;0.90;0.90;;;-3.20;1.00;;;;;;5050878;28;20665;-74
2022/03/09 00:12:04;;;;;;;0.90;0.90;;;-3.30;1.00;;;;;;5051541;28;20179;-74
2022/03/09 00:14:30;;;;;;;0.93;0.93;;;-3.20;96.90;;;;;;5051593;28;20171;-74
2022/03/09 00:16:55;;;;;;;0.80;0.80;;;-3.30;1.00;;;;;;5051071;28;20201;-74
2022/03/09 00:19:21;;;;;;;1.00;1.00;;;-3.30;1.00;;;;;;5050976;28;20211;-73
2022/03/09 00:21:47;;;;;;;0.90;0.90;;;-3.40;1.00;;;;;;5051251;28;20191;-74
2022/03/09 00:24:14;;;;;;;0.90;0.90;;;-3.50;5.60;;;;;;5051174;28;20186;-73
2022/03/09 00:26:40;;;;;;;0.90;0.90;;;-3.50;1.00;;;;;;5051567;28;20183;-74
2022/03/09 00:29:06;;;;;;;0.90;0.90;;;-3.50;18.20;;;;;;5050905;28;20174;-72
2022/03/09 00:31:31;;;;;;;0.90;0.90;;;-3.50;1.00;;;;;;5051382;28;20194;-74
2022/03/09 00:33:57;;;;;;;0.83;0.83;;;-3.50;1.00;;;;;;5051107;28;20668;-74
2022/03/09 00:36:23;;;;;;;0.90;0.90;;;-3.50;1.00;;;;;;5051091;28;20178;-74
2022/03/09 00:38:48;;;;;;;0.90;0.90;;;-3.50;99.90;;;;;;5050894;28;20186;-75
2022/03/09 00:41:15;;;;;;;0.80;0.80;;;-3.50;1.00;;;;;;5050658;28;20182;-75
2022/03/09 00:43:40;;;;;;;1.00;1.00;;;-3.40;1.00;;;;;;5050882;28;20679;-73
2022/03/09 00:46:06;;;;;;;0.90;0.90;;;-3.40;99.90;;;;;;5051138;28;20199;-75
2022/03/09 00:48:32;;;;;;;1.00;1.00;;;-3.40;99.90;;;;;;5050857;28;20198;-74
2022/03/09 00:50:57;;;;;;;0.90;0.90;;;-3.70;1.00;;;;;;5050129;28;20199;-75
2022/03/09 00:53:23;;;;;;;0.80;0.80;;;-3.60;1.00;;;;;;5050861;28;20179;-74
2022/03/09 00:55:48;;;;;;;0.90;0.90;;;-3.50;22.60;;;;;;5051071;28;20175;-75
2022/03/09 00:58:14;;;;;;;1.00;1.00;;;-3.40;8.40;;;;;;5050877;28;20167;-75
2022/03/09 01:00:39;;;;;;;0.90;0.90;;;-3.60;1.00;;;;;;5050192;28;20195;-75
2022/03/09 01:03:05;;;;;;;0.80;0.80;;;-3.60;99.90;;;;;;5050775;28;20558;-75
2022/03/09 01:05:30;;;;;;;0.90;0.90;;;-3.50;1.00;;;;;;5050627;28;20249;-75
2022/03/09 01:07:56;;;;;;;0.80;0.80;;;-3.40;1.00;;;;;;5050810;28;20214;-75
2022/03/09 01:10:21;;;;;;;0.90;0.90;;;-3.50;1.00;;;;;;5050367;28;20199;-74
2022/03/09 01:12:47;;;;;;;0.90;0.90;;;-3.60;99.90;;;;;;5050924;28;20190;-74
2022/03/09 01:15:13;;;;;;;0.80;0.80;;;-3.80;99.90;;;;;;5051019;28;20171;-74
2022/03/09 01:17:38;;;;;;;0.80;0.80;;;-3.70;99.90;;;;;;5051128;28;20202;-75
2022/03/09 01:20:04;;;;;;;0.80;0.80;;;-3.20;1.00;;;;;;5050283;28;20258;-75
2022/03/09 01:22:30;;;;;;;0.80;0.80;;;-3.60;99.90;;;;;;5050386;28;20302;-75
2022/03/09 01:24:55;;;;;;;0.90;0.90;;;-3.60;1.00;;;;;;5050537;28;20214;-75
2022/03/09 01:27:21;;;;;;;0.80;0.80;;;-3.70;1.00;;;;;;5050709;28;20179;-75
2022/03/09 01:29:46;;;;;;;0.80;0.80;;;-3.70;99.90;;;;;;5053647;28;20642;-74
2022/03/09 01:32:12;;;;;;;0.80;0.80;;;-3.80;4.40;;;;;;5054576;28;20175;-75
2022/03/09 01:34:38;;;;;;;0.80;0.80;;;-3.80;25.30;;;;;;5054299;28;20706;-75
2022/03/09 01:37:04;;;;;;;0.90;0.90;;;-3.80;93.20;;;;;;5054285;28;20621;-75
2022/03/09 01:39:29;;;;;;;0.90;0.90;;;-3.80;99.90;;;;;;5053855;28;20198;-75
2022/03/09 01:41:55;;;;;;;0.90;0.90;;;-3.90;1.00;;;;;;5055086;28;20551;-73
2022/03/09 01:44:22;;;;;;;0.80;0.80;;;-3.80;1.00;;;;;;5055087;28;20736;-75
2022/03/09 01:46:50;;;;;;;0.80;0.80;;;-3.80;1.00;;;;;;5054216;28;20266;-75
2022/03/09 01:49:16;;;;;;;0.80;0.80;;;-3.90;1.00;;;;;;5053413;28;20179;-76
2022/03/09 01:51:44;;;;;;;0.97;0.97;;;-3.90;1.00;;;;;;5053939;28;20225;-75
2022/03/09 01:54:10;;;;;;;0.80;0.80;;;-4.00;95.30;;;;;;5053975;28;20643;-74
2022/03/09 01:56:37;;;;;;;0.90;0.90;;;-4.00;56.80;;;;;;5053976;28;20179;-74
2022/03/09 01:59:09;;;;;;;0.90;0.90;;;-4.00;1.00;;;;;;5053345;28;20182;-74
2022/03/09 02:01:35;;;;;;;0.80;0.80;;;-4.00;99.90;;;;;;5053380;28;20186;-76
2022/03/09 02:04:03;;;;;;;0.90;0.90;;;-4.00;20.50;;;;;;5053883;28;20210;-76
2022/03/09 02:06:31;;;;;;;0.90;0.90;;;-4.00;16.50;;;;;;5053795;28;20645;-76
2022/03/09 02:11:42;;;;;;;0.90;0.90;;;-4.20;1.00;;;;;;5053731;28;20244;-75
2022/03/09 02:14:29;;;;;;;0.80;0.80;;;-4.30;1.00;;;;;;5053874;28;20176;-75
2022/03/09 02:16:56;;;;;;;0.70;0.70;;;-4.30;1.00;;;;;;5053567;28;20175;-76
2022/03/09 02:19:22;;;;;;;0.80;0.80;;;-4.30;28.40;;;;;;5053136;28;20214;-76
2022/03/09 02:21:50;;;;;;;0.87;0.87;;;-4.30;1.00;;;;;;5053687;28;20268;-76
2022/03/09 02:24:16;;;;;;;0.90;0.90;;;-4.30;1.00;;;;;;5053678;28;20222;-76
2022/03/09 02:26:42;;;;;;;0.90;0.90;;;-4.30;1.00;;;;;;5053386;28;20233;-76
2022/03/09 02:29:07;;;;;;;0.97;0.97;;;-4.30;1.00;;;;;;5053081;28;20252;-76
2022/03/09 02:31:34;;;;;;;0.80;0.80;;;-4.20;41.90;;;;;;5053212;28;20187;-75
2022/03/09 02:33:59;;;;;;;0.80;0.80;;;-4.30;1.00;;;;;;5061574;28;20191;-76
2022/03/09 02:36:25;;;;;;;0.80;0.80;;;-4.30;1.00;;;;;;5067205;28;20212;-76
2022/03/09 02:38:50;;;;;;;0.77;0.77;;;-4.30;99.90;;;;;;5066538;28;20645;-77
2022/03/09 02:41:16;;;;;;;0.77;0.77;;;-4.40;99.90;;;;;;5060702;28;20202;-77
2022/03/09 02:43:41;;;;;;;0.80;0.80;;;-4.40;1.00;;;;;;5053520;28;20207;-75
2022/03/09 02:46:07;;;;;;;0.80;0.80;;;-4.40;1.00;;;;;;5053611;28;20183;-76
2022/03/09 02:48:32;;;;;;;0.90;0.90;;;-4.40;1.00;;;;;;5053945;28;20675;-77
2022/03/09 02:50:58;;;;;;;0.90;0.90;;;-4.30;1.00;;;;;;5052911;28;20198;-76
2022/03/09 02:53:23;;;;;;;0.83;0.83;;;-4.30;99.90;;;;;;5053876;28;20175;-77
2022/03/09 02:55:49;;;;;;;0.90;0.90;;;-4.30;99.90;;;;;;5053698;28;20167;-76
2022/03/09 02:58:15;;;;;;;0.90;0.90;;;-4.50;1.00;;;;;;5053621;28;20175;-77
2022/03/09 03:00:41;;;;;;;0.80;0.80;;;-4.40;1.00;;;;;;5052253;28;20237;-76
2022/03/09 03:03:06;;;;;;;0.80;0.80;;;-4.50;1.00;;;;;;5052918;28;20210;-76
2022/03/09 03:05:31;;;;;;;0.90;0.90;;;-4.40;1.00;;;;;;5053178;28;20254;-76
2022/03/09 03:07:57;;;;;;;0.80;0.80;;;-4.40;99.90;;;;;;5053134;28;20175;-74
2022/03/09 03:10:22;;;;;;;0.90;0.90;;;-4.40;1.00;;;;;;5052509;28;20719;-77
2022/03/09 03:12:48;;;;;;;0.83;0.83;;;-4.40;90.20;;;;;;5052842;28;20649;-76
2022/03/09 03:15:13;;;;;;;0.80;0.80;;;-4.40;99.90;;;;;;5052724;28;20171;-76
2022/03/09 03:17:39;;;;;;;0.83;0.83;;;-4.50;1.00;;;;;;5052777;28;20167;-75
2022/03/09 03:20:05;;;;;;;0.80;0.80;;;-4.50;1.00;;;;;;5131892;23;20232;-73
2022/03/09 03:22:31;;;;;;;0.70;0.70;;;-4.50;1.00;;;;;;5112968;28;20196;-74
2022/03/09 03:24:57;;;;;;;0.80;0.80;;;-4.40;1.00;;;;;;5113310;28;20325;-73
2022/03/09 03:27:22;;;;;;;0.80;0.80;;;-4.40;10.70;;;;;;5113153;28;20207;-74
2022/03/09 03:29:47;;;;;;;0.70;0.70;;;-4.40;99.90;;;;;;5112358;28;20201;-75
2022/03/09 03:32:13;;;;;;;0.90;0.90;;;-4.50;1.00;;;;;;5113150;28;20260;-74
2022/03/09 03:34:39;;;;;;;0.77;0.77;;;-4.60;1.00;;;;;;5113125;28;20183;-72
2022/03/09 03:37:04;;;;;;;0.80;0.80;;;-4.70;99.90;;;;;;5112868;28;20233;-71
2022/03/09 03:39:30;;;;;;;0.80;0.80;;;-4.80;1.00;;;;;;5112073;28;20279;-71
2022/03/09 03:41:55;;;;;;;0.80;0.80;;;-4.80;1.00;;;;;;5112760;28;20241;-72
2022/03/09 03:44:21;;;;;;;0.80;0.80;;;-4.80;99.90;;;;;;5112538;28;20181;-72
2022/03/09 03:46:46;;;;;;;0.73;0.73;;;-4.90;99.90;;;;;;5112748;28;20595;-73
2022/03/09 03:49:12;;;;;;;0.70;0.70;;;-4.80;1.00;;;;;;5112201;28;20574;-73
2022/03/09 03:51:38;;;;;;;0.80;0.80;;;-4.90;99.90;;;;;;5111567;28;20689;-72
2022/03/09 03:54:03;;;;;;;0.80;0.80;;;-4.90;1.00;;;;;;5112496;28;20204;-74
2022/03/09 03:56:29;;;;;;;0.70;0.70;;;-5.00;80.90;;;;;;5112318;28;20204;-73
2022/03/09 03:58:54;;;;;;;0.80;0.80;;;-5.00;1.00;;;;;;5111822;28;20199;-73
2022/03/09 04:01:20;;;;;;;0.87;0.87;;;-5.00;1.00;;;;;;5112523;28;20573;-73
2022/03/09 04:03:45;;;;;;;0.80;0.80;;;-4.90;95.70;;;;;;5112454;28;20205;-71
2022/03/09 04:06:11;;;;;;;0.80;0.80;;;-4.80;1.00;;;;;;5112342;28;20184;-73
2022/03/09 04:08:36;;;;;;;0.80;0.80;;;-4.80;99.90;;;;;;5112285;28;20230;-73
2022/03/09 04:11:02;;;;;;;0.80;0.80;;;-4.80;1.00;;;;;;5111617;28;20197;-72
2022/03/09 04:13:28;;;;;;;0.90;0.90;;;-4.90;1.00;;;;;;5112033;28;20642;-72
2022/03/09 04:15:53;;;;;;;0.80;0.80;;;-5.00;99.90;;;;;;5112288;28;20626;-73
2022/03/09 04:18:19;;;;;;;0.80;0.80;;;-4.90;1.00;;;;;;5111897;28;20199;-72
2022/03/09 04:20:44;;;;;;;0.70;0.70;;;-4.80;99.90;;;;;;5111605;28;20216;-72
2022/03/09 04:23:10;;;;;;;0.73;0.73;;;-4.80;39.90;;;;;;5111821;28;20193;-72
2022/03/09 04:25:37;;;;;;;0.80;0.80;;;-4.90;1.00;;;;;;5111841;28;20662;-73
2022/03/09 04:28:03;;;;;;;0.70;0.70;;;-5.00;1.00;;;;;;5111881;28;20204;-72
2022/03/09 04:30:29;;;;;;;0.80;0.80;;;-5.00;1.00;;;;;;5111615;28;20227;-72
2022/03/09 04:32:55;;;;;;;0.80;0.80;;;-5.10;1.00;;;;;;5111731;28;20627;-73
2022/03/09 04:35:21;;;;;;;0.80;0.80;;;-5.20;1.00;;;;;;5111870;28;20177;-73
2022/03/09 04:37:47;;;;;;;0.80;0.80;;;-5.30;44.90;;;;;;5111722;28;20264;-73
2022/03/09 04:40:13;;;;;;;0.80;0.80;;;-5.30;1.00;;;;;;5111096;28;20296;-73
2022/03/09 04:42:38;;;;;;;0.77;0.77;;;-5.40;1.00;;;;;;5111442;28;20735;-71
2022/03/09 04:45:05;;;;;;;0.80;0.80;;;-5.40;99.90;;;;;;5111989;28;20173;-72
2022/03/09 04:47:30;;;;;;;0.80;0.80;;;-5.30;1.00;;;;;;5111786;28;20521;-71
2022/03/09 04:49:56;;;;;;;0.90;0.90;;;-5.20;1.00;;;;;;5111081;28;20204;-72
2022/03/09 04:52:22;;;;;;;0.70;0.70;;;-5.10;1.00;;;;;;5111675;28;20169;-73
2022/03/09 04:54:48;;;;;;;0.80;0.80;;;-5.10;99.90;;;;;;5108393;28;20170;-73
2022/03/09 04:57:14;;;;;;;0.70;0.70;;;-5.20;1.00;;;;;;5108353;28;20196;-74
2022/03/09 04:59:39;;;;;;;0.70;0.70;;;-5.30;99.90;;;;;;5110966;28;20192;-73
2022/03/09 05:02:05;;;;;;;0.80;0.80;;;-5.30;1.00;;;;;;5111792;28;20173;-73
2022/03/09 05:04:30;;;;;;;0.80;0.80;;;-5.30;1.00;;;;;;5115232;28;20681;-72
2022/03/09 05:06:56;;;;;;;0.77;0.77;;;-5.40;99.90;;;;;;5097632;28;20621;-72
2022/03/09 05:09:21;;;;;;;0.80;0.80;;;-5.50;99.90;;;;;;5096904;28;20201;-72
2022/03/09 05:11:47;;;;;;;0.80;0.80;;;-5.60;99.90;;;;;;5115630;28;20245;-74
2022/03/09 05:14:12;;;;;;;0.80;0.80;;;-5.60;1.00;;;;;;5116045;28;20586;-73
2022/03/09 05:16:39;;;;;;;0.70;0.70;;;-5.70;99.90;;;;;;5116685;28;20634;-73
2022/03/09 05:19:05;;;;;;;0.70;0.70;;;-5.60;1.00;;;;;;5116015;28;20258;-72
2022/03/09 05:21:30;;;;;;;0.70;0.70;;;-5.60;1.00;;;;;;5118512;28;20177;-72
2022/03/09 05:23:56;;;;;;;0.80;0.80;;;-5.50;1.00;;;;;;5119122;28;20236;-72
2022/03/09 05:26:21;;;;;;;0.70;0.70;;;-5.60;1.00;;;;;;5119759;28;20177;-72
2022/03/09 05:28:47;;;;;;;0.70;0.70;;;-5.50;1.00;;;;;;5121375;28;20173;-73
2022/03/09 05:31:13;;;;;;;0.80;0.80;;;-5.30;1.00;;;;;;5121057;28;20193;-72
2022/03/09 05:33:38;;;;;;;0.80;0.80;;;-5.30;1.00;;;;;;5117555;28;20184;-72
2022/03/09 05:36:04;;;;;;;0.80;0.80;;;-5.30;42.40;;;;;;5102831;28;20181;-72
2022/03/09 05:38:30;;;;;;;0.80;0.80;;;-5.20;1.00;;;;;;5124963;28;20619;-72
2022/03/09 05:40:56;;;;;;;0.80;0.80;;;-5.30;1.00;;;;;;5125471;28;20219;-72
2022/03/09 05:43:22;;;;;;;0.63;0.63;;;-5.30;1.00;;;;;;5124812;28;20209;-71
2022/03/09 05:45:47;;;;;;;0.70;0.70;;;-5.30;1.00;;;;;;5123768;28;20743;-72
2022/03/09 05:48:13;;;;;;;0.80;0.80;;;-5.30;99.90;;;;;;5116340;28;20188;-72
2022/03/09 05:50:38;;;;;;;0.80;0.80;;;-5.40;46.20;;;;;;5114433;28;20185;-71
2022/03/09 05:53:04;;;;;;;0.80;0.80;;;-5.40;1.00;;;;;;5114928;28;20657;-73
2022/03/09 05:55:30;;;;;;;0.70;0.70;;;-5.40;95.10;;;;;;5114935;28;20575;-72
2022/03/09 05:57:55;;;;;;;0.70;0.70;;;-5.40;1.00;;;;;;5114880;28;20180;-72
2022/03/09 06:00:21;;;;;;;0.80;0.80;;;-5.50;99.90;;;;;;5114380;28;20222;-73
2022/03/09 06:02:47;;;;;;;0.70;0.70;;;-5.40;99.90;;;;;;5114728;28;20287;-72
2022/03/09 06:05:12;;;;;;;0.80;0.80;;;-5.30;53.40;;;;;;5114726;28;20253;-72
2022/03/09 06:07:38;;;;;;;0.80;0.80;;;-5.30;10.30;;;;;;5114908;28;20548;-73
2022/03/09 06:10:04;;;;;;;0.77;0.77;;;-5.20;1.00;;;;;;5113702;28;20230;-72
2022/03/09 06:12:29;;;;;;;0.70;0.70;;;-5.20;99.90;;;;;;5114769;28;20173;-72
2022/03/09 06:14:55;;;;;;;0.60;0.60;;;-5.10;1.00;;;;;;5113534;28;20172;-73
2022/03/09 06:17:21;;;;;;;0.80;0.80;;;-5.10;1.00;;;;;;5114636;28;20488;-72
2022/03/09 06:19:46;;;;;;;0.73;0.73;;;-4.90;1.00;;;;;;5113785;28;20236;-72
2022/03/09 06:22:12;;;;;;;0.80;0.80;;;-4.80;1.00;;;;;;5114466;28;20608;-72
2022/03/09 06:24:37;;;;;;;0.80;0.80;;;-4.60;99.90;;;;;;5114373;28;20198;-72
2022/03/09 06:27:04;;;;;;;0.80;0.80;;;-4.50;1.00;;;;;;5114404;28;20173;-72
2022/03/09 06:29:30;;;;;;;0.80;0.80;;;-4.10;1.00;;;;;;5113928;28;20208;-72
2022/03/09 06:31:55;;;;;;;0.80;0.80;;;-3.90;1.00;;;;;;5114288;28;20188;-73
2022/03/09 06:34:21;;;;;;;0.80;0.80;;;-3.70;1.00;;;;;;5114026;28;20165;-71
2022/03/09 06:36:47;;;;;;;0.70;0.70;;;-3.40;1.00;;;;;;5114111;28;20310;-72
2022/03/09 06:39:14;;;;;;;0.80;0.80;;;-3.30;1.00;;;;;;5113320;28;20227;-71
2022/03/09 06:41:41;;;;;;;0.80;0.80;;;-3.20;1.00;;;;;;5113968;28;20635;-72
2022/03/09 06:44:07;;;;;;;0.87;0.87;;;-3.00;99.90;;;;;;5114159;28;20212;-73
2022/03/09 06:46:32;;;;;;;0.80;0.80;;;-2.70;3.60;;;;;;5114300;28;20546;-72
2022/03/09 06:48:58;;;;;;;0.87;0.87;;;-2.80;1.00;;;;;;5113717;28;20165;-73
2022/03/09 06:51:24;;;;;;;0.90;0.90;;;-2.90;99.90;;;;;;5113950;28;20180;-74
2022/03/09 06:53:49;;;;;;;0.87;0.87;;;-2.90;1.00;;;;;;5113596;28;20173;-73
2022/03/09 06:56:16;;;;;;;0.87;0.87;;;-2.50;1.00;;;;;;5113701;28;20669;-72
2022/03/09 06:58:41;;;;;;;0.90;0.90;;;-1.80;1.00;;;;;;5113790;28;20177;-73
2022/03/09 07:01:07;;;;;;;0.90;0.90;;;-1.10;1.00;;;;;;5113017;28;20557;-72
2022/03/09 07:03:32;;;;;;;0.83;0.83;;;-0.50;1.00;;;;;;5113567;28;20651;-72
2022/03/09 07:05:58;;;;;;;0.80;0.80;;;1.20;1.00;;;;;;5113144;28;20195;-73
2022/03/09 07:08:23;;;;;;;0.80;0.80;;;3.10;1.00;;;;;;5113308;28;20173;-73
2022/03/09 07:10:50;;;;;;;0.70;0.70;;;4.10;1.00;;;;;;5113000;28;20655;-72
2022/03/09 07:13:15;;;;;;;0.67;0.67;;;4.60;1.00;;;;;;5113471;28;20184;-72
2022/03/09 07:15:41;;;;;;;0.70;0.70;;;4.60;1.00;;;;;;5112385;28;20173;-74
2022/03/09 07:18:06;;;;;;;0.60;0.60;;;4.80;1.00;;;;;;5092847;28;20177;-73
2022/03/09 07:20:32;;;;;;;0.40;0.40;;;5.50;1.00;;;;;;5101024;28;20407;-74
2022/03/09 07:22:57;;;;;;;0.40;0.40;;;5.50;1.00;;;;;;5106841;28;20259;-74
2022/03/09 07:25:23;;;;;;;0.47;0.47;;;5.50;1.00;;;;;;5106846;28;20610;-74
2022/03/09 07:27:49;;;;;;;0.53;0.53;;;6.10;1.00;;;;;;5107181;28;20173;-74
2022/03/09 07:30:14;;;;;;;0.60;0.60;;;6.10;1.00;;;;;;5107510;28;20216;-74
2022/03/09 07:32:41;;;;;;;0.40;0.40;;;5.90;1.00;;;;;;5108934;28;20694;-74
2022/03/09 07:35:08;;;;;;;0.40;0.40;;;6.00;1.00;;;;;;5106107;28;20162;-74
2022/03/09 07:37:34;;;;;;;0.40;0.40;;;6.30;1.00;;;;;;5107565;28;20535;-74
2022/03/09 07:39:59;;;;;;;0.30;0.30;;;6.40;1.00;;;;;;5106211;28;20289;-74
2022/03/09 07:42:25;;;;;;;0.40;0.40;;;6.80;1.00;;;;;;5106714;28;20219;-74
2022/03/09 07:44:50;;;;;;;0.30;0.30;;;6.70;1.00;;;;;;5106716;28;20540;-73
2022/03/09 07:47:16;;;;;;;0.40;0.40;;;6.70;1.00;;;;;;5106638;28;20402;-74
2022/03/09 07:49:42;;;;;;;0.30;0.30;;;7.00;1.00;;;;;;5105896;28;20663;-75
2022/03/09 07:52:07;;;;;;;0.40;0.40;;;7.30;1.00;;;;;;5106486;28;20173;-74
2022/03/09 07:54:33;;;;;;;0.40;0.40;;;7.10;1.00;;;;;;5106997;28;20173;-75
2022/03/09 07:56:59;;;;;;;0.40;0.40;;;7.20;1.00;;;;;;5106880;28;20374;-74
2022/03/09 07:59:26;;;;;;;0.30;0.30;;;8.10;1.00;;;;;;5105968;28;20195;-75
2022/03/09 08:01:53;;;;;;;0.30;0.30;;;8.10;1.00;;;;;;5106881;28;20180;-74
2022/03/09 08:04:21;;;;;;;0.40;0.40;;;8.30;1.00;;;;;;5106564;28;20296;-75
2022/03/09 08:06:51;;;;;;;0.30;0.30;;;8.60;1.00;;;;;;5106531;28;20177;-74
2022/03/09 08:09:16;;;;;;;0.30;0.30;;;8.60;1.00;;;;;;5106249;28;20276;-74
2022/03/09 08:11:42;;;;;;;0.40;0.40;;;9.00;1.00;;;;;;5106710;28;20256;-73
2022/03/09 08:14:09;;;;;;;0.33;0.33;;;9.20;1.00;;;;;;5109306;28;20265;-74
2022/03/09 08:16:34;;;;;;;0.40;0.40;;;8.60;1.00;;;;;;5112704;28;20188;-73
2022/03/09 08:19:00;;;;;;;0.40;0.40;;;9.10;1.00;;;;;;5111991;28;20726;-74
2022/03/09 08:21:25;;;;;;;0.43;0.43;;;9.00;1.00;;;;;;5112345;28;20180;-75
2022/03/09 08:23:51;;;;;;;0.30;0.30;;;8.50;1.00;;;;;;5112543;28;20204;-74
2022/03/09 08:26:16;;;;;;;0.30;0.30;;;8.90;1.00;;;;;;5112536;28;20176;-72
2022/03/09 08:28:42;;;;;;;0.30;0.30;;;9.30;1.00;;;;;;5112313;28;20592;-73
2022/03/09 08:31:08;;;;;;;0.40;0.40;;;9.60;1.00;;;;;;5111837;28;20751;-73
2022/03/09 08:33:33;;;;;;;0.40;0.40;;;9.20;1.00;;;;;;5112129;28;20256;-73
2022/03/09 08:35:59;;;;;;;0.30;0.30;;;9.10;1.00;;;;;;5111972;28;20223;-73
2022/03/09 08:38:25;;;;;;;0.30;0.30;;;9.60;1.00;;;;;;5111489;28;20208;-73
2022/03/09 08:40:51;;;;;;;0.40;0.40;;;8.80;1.00;;;;;;5111701;28;20666;-72
2022/03/09 08:43:17;;;;;;;0.30;0.30;;;9.50;1.00;;;;;;5112207;28;20581;-74
2022/03/09 08:45:43;;;;;;;0.40;0.40;;;9.70;1.00;;;;;;5112188;28;20181;-72
2022/03/09 08:48:09;;;;;;;0.40;0.40;;;10.20;1.00;;;;;;5112014;28;20174;-72
2022/03/09 08:50:34;;;;;;;0.30;0.30;;;10.50;1.00;;;;;;5111071;28;20200;-72
2022/03/09 08:53:01;;;;;;;0.30;0.30;;;10.40;1.00;;;;;;5112071;28;20197;-71
2022/03/09 08:55:27;;;;;;;0.37;0.37;;;8.70;1.00;;;;;;5112132;28;20169;-71
2022/03/09 08:57:53;;;;;;;0.30;0.30;;;10.00;1.00;;;;;;5111967;28;20177;-73
2022/03/09 09:00:18;;;;;;;0.30;0.30;;;9.80;1.00;;;;;;5111456;28;20272;-72
2022/03/09 09:02:44;;;;;;;0.30;0.30;;;10.00;1.00;;;;;;5111956;28;20204;-72
2022/03/09 09:05:10;;;;;;;0.30;0.30;;;10.40;1.00;;;;;;5111783;28;20172;-72
2022/03/09 09:07:37;;;;;;;0.30;0.30;;;10.40;1.00;;;;;;5111906;28;20165;-72
2022/03/09 09:10:04;;;;;;;0.30;0.30;;;10.70;1.00;;;;;;5107897;28;20221;-74
2022/03/09 09:12:30;;;;;;;0.30;0.30;;;10.80;1.00;;;;;;5108701;28;20177;-73
2022/03/09 09:14:56;;;;;;;0.30;0.30;;;10.90;1.00;;;;;;5111791;28;20203;-74
2022/03/09 09:17:22;;;;;;;0.30;0.30;;;11.00;1.00;;;;;;5111820;28;20180;-73
2022/03/09 09:19:48;;;;;;;0.30;0.30;;;10.40;1.00;;;;;;5110886;28;20213;-73
2022/03/09 09:22:14;;;;;;;0.30;0.30;;;9.90;1.00;;;;;;5111735;28;20181;-73
2022/03/09 09:24:39;;;;;;;0.30;0.30;;;11.10;1.00;;;;;;5111560;28;20178;-74
2022/03/09 09:27:05;;;;;;;0.30;0.30;;;11.20;1.00;;;;;;5111551;28;20215;-73
2022/03/09 09:29:30;;;;;;;0.30;0.30;;;11.20;1.00;;;;;;5107540;28;20209;-72
2022/03/09 09:31:56;;;;;;;0.30;0.30;;;11.40;1.00;;;;;;5105331;28;20177;-72
2022/03/09 09:34:22;;;;;;;0.40;0.40;;;10.70;1.00;;;;;;5105266;28;20205;-72
2022/03/09 09:36:48;;;;;;;0.30;0.30;;;11.30;1.00;;;;;;5105457;28;20653;-73
2022/03/09 09:39:15;;;;;;;0.40;0.40;;;11.10;1.00;;;;;;5107660;28;20184;-73
2022/03/09 09:41:46;;;;;;;0.30;0.30;;;11.60;1.00;;;;;;5111529;28;20284;-73
2022/03/09 09:44:13;;;;;;;0.30;0.30;;;11.60;1.00;;;;;;5111349;28;20544;-76
2022/03/09 09:46:40;;;;;;;0.30;0.30;;;11.40;1.00;;;;;;5111312;28;20200;-73
2022/03/09 09:49:10;;;;;;;0.30;0.30;;;11.10;1.00;;;;;;5111584;28;20672;-72
2022/03/09 09:51:39;;;;;;;0.40;0.40;;;11.40;1.00;;;;;;5115226;28;20175;-75
2022/03/09 09:54:05;;;;;;;0.33;0.33;;;11.50;1.00;;;;;;5115067;28;20220;-73
2022/03/09 09:56:36;;;;;;;0.30;0.30;;;12.40;1.00;;;;;;5115169;28;20180;-74
2022/03/09 09:59:02;;;;;;;0.30;0.30;;;12.20;1.00;;;;;;5114398;28;20230;-73
2022/03/09 10:01:28;;;;;;;0.30;0.30;;;12.20;1.00;;;;;;5115159;28;20166;-74
2022/03/09 10:03:54;;;;;;;0.30;0.30;;;13.30;1.00;;;;;;5115086;28;20218;-73
2022/03/09 10:06:19;;;;;;;0.30;0.30;;;13.10;1.00;;;;;;5115000;28;20181;-73
2022/03/09 10:09:08;;;;;;;0.40;0.40;;;14.30;1.00;;;;;;5114920;28;20169;-73
2022/03/09 10:11:51;;;;;;;0.30;0.30;;;14.80;1.00;;;;;;5114732;28;20169;-73
2022/03/09 10:14:54;;;;;;;0.40;0.40;;;14.80;1.00;;;;;;5114549;28;20633;-74
2022/03/09 10:17:23;;;;;;;0.30;0.30;;;14.30;1.00;;;;;;5114624;28;20169;-74
2022/03/09 10:19:51;;;;;;;0.30;0.30;;;14.10;1.00;;;;;;5113880;28;20701;-72
2022/03/09 10:22:33;;;;;;;0.30;0.30;;;14.60;1.00;;;;;;5113932;28;20173;-75
2022/03/09 10:25:18;;;;;;;0.30;0.30;;;14.30;1.00;;;;;;5108991;28;20169;-73
2022/03/09 10:27:44;;;;;;;0.23;0.23;;;15.50;1.00;;;;;;5114691;28;20218;-73
2022/03/09 10:30:13;;;;;;;0.33;0.33;;;16.20;1.00;;;;;;5113876;28;20197;-74
2022/03/09 10:32:51;;;;;;;0.33;0.33;;;16.00;1.00;;;;;;5114487;28;20701;-72
2022/03/09 10:35:30;;;;;;;0.37;0.37;;;15.80;1.00;;;;;;5114676;28;20218;-73
2022/03/09 10:37:57;;;;;;;0.30;0.30;;;15.80;1.00;;;;;;5115045;28;20181;-72
2022/03/09 10:40:24;;;;;;;0.40;0.40;;;15.60;1.00;;;;;;5115096;28;20223;-71
2022/03/09 10:42:50;;;;;;;0.40;0.40;;;15.30;1.00;;;;;;5114901;28;20173;-73
2022/03/09 10:45:17;;;;;;;0.30;0.30;;;15.60;1.00;;;;;;5113980;28;20711;-73
2022/03/09 10:47:44;;;;;;;0.40;0.40;;;14.80;1.00;;;;;;5114466;28;20177;-73
2022/03/09 10:50:21;;;;;;;0.30;0.30;;;15.30;1.00;;;;;;5113671;28;20288;-73
2022/03/09 10:53:00;;;;;;;0.30;0.30;;;16.00;1.00;;;;;;5113747;28;20266;-72
2022/03/09 10:55:36;;;;;;;0.33;0.33;;;16.60;1.00;;;;;;5114047;28;20173;-72
2022/03/09 10:58:22;;;;;;;0.30;0.30;;;15.60;1.00;;;;;;5113928;28;20654;-73
2022/03/09 11:00:48;;;;;;;0.20;0.20;;;16.20;1.00;;;;;;5112878;28;20193;-74
2022/03/09 11:03:19;;;;;;;0.20;0.20;;;16.40;1.00;;;;;;5113946;28;20230;-73
2022/03/09 11:05:56;;;;;;;0.30;0.30;;;16.00;1.00;;;;;;5113743;28;20185;-74
2022/03/09 11:08:28;;;;;;;0.30;0.30;;;16.60;1.00;;;;;;5113932;28;20185;-73
2022/03/09 11:11:00;;;;;;;0.37;0.37;;;16.50;1.00;;;;;;5113184;28;20546;-73
2022/03/09 11:13:30;;;;;;;0.30;0.30;;;15.50;1.00;;;;;;5113839;28;20246;-73
2022/03/09 11:15:56;;;;;;;0.30;0.30;;;16.00;1.00;;;;;;5113842;28;20173;-73
2022/03/09 11:18:24;;;;;;;0.20;0.20;;;16.50;1.00;;;;;;5113855;28;20200;-73
2022/03/09 11:21:02;;;;;;;0.30;0.30;;;17.50;1.00;;;;;;5112961;28;20593;-72
2022/03/09 11:23:31;;;;;;;0.40;0.40;;;17.50;1.00;;;;;;5113623;28;20226;-72
2022/03/09 11:26:01;;;;;;;0.30;0.30;;;17.30;1.00;;;;;;5113330;28;20180;-72
2022/03/09 11:28:31;;;;;;;0.30;0.30;;;17.00;1.00;;;;;;5113391;28;20665;-73
2022/03/09 11:30:58;;;;;;;0.30;0.30;;;17.50;1.00;;;;;;5112709;28;20200;-73
2022/03/09 11:33:44;;;;;;;0.30;0.30;;;17.30;1.00;;;;;;5113062;28;20209;-74
2022/03/09 11:36:36;;;;;;;0.30;0.30;;;17.50;1.00;;;;;;5114412;28;20173;-73
2022/03/09 11:39:05;;;;;;;0.30;0.30;;;17.60;1.00;;;;;;5114370;28;20181;-73
2022/03/09 11:41:36;;;;;;;0.30;0.30;;;18.00;1.00;;;;;;5117573;28;20219;-74
2022/03/09 11:44:19;;;;;;;0.30;0.30;;;17.60;1.00;;;;;;5116983;28;20230;-72
2022/03/09 11:46:58;;;;;;;0.33;0.33;;;18.30;1.00;;;;;;5113121;28;20631;-75
2022/03/09 11:49:54;;;;;;;0.30;0.30;;;18.80;1.00;;;;;;5107667;28;20207;-75
2022/03/09 11:52:31;;;;;;;0.20;0.20;;;18.80;1.00;;;;;;5109062;28;20248;-73
2022/03/09 11:55:01;;;;;;;0.30;0.30;;;18.10;1.00;;;;;;5113205;28;20576;-75
2022/03/09 11:58:04;;;;;;;0.30;0.30;;;17.20;1.00;;;;;;5112753;28;20173;-74
2022/03/09 12:00:29;;;;;;;0.30;0.30;;;17.20;1.00;;;;;;5112409;28;20188;-74
2022/03/09 12:02:56;;;;;;;0.30;0.30;;;17.30;1.00;;;;;;5112913;28;20281;-74
2022/03/09 12:05:25;;;;;;;0.30;0.30;;;18.20;1.00;;;;;;5113299;28;20196;-74
2022/03/09 12:07:53;;;;;;;0.20;0.20;;;18.80;1.00;;;;;;5113693;28;20252;-73
2022/03/09 12:10:22;;;;;;;0.23;0.23;;;18.60;1.00;;;;;;5113936;28;20226;-75
2022/03/09 12:13:15;;;;;;;0.20;0.20;;;18.60;1.00;;;;;;5113544;28;20257;-73
2022/03/09 12:16:05;;;;;;;0.40;0.40;;;18.40;1.00;;;;;;5114959;28;20176;-75
2022/03/09 12:18:44;;;;;;;0.30;0.30;;;18.20;1.00;;;;;;5112350;28;20226;-73
2022/03/09 12:21:32;;;;;;;0.30;0.30;;;17.60;1.00;;;;;;5112265;28;20196;-74
2022/03/09 12:24:04;;;;;;;0.20;0.20;;;18.40;1.00;;;;;;5111273;28;20175;-74
2022/03/09 12:26:50;;;;;;;0.30;0.30;;;18.50;1.00;;;;;;5112399;28;20643;-73
2022/03/09 12:29:22;;;;;;;0.33;0.33;;;18.60;1.00;;;;;;5112231;28;20181;-74
2022/03/09 12:32:06;;;;;;;0.30;0.30;;;18.20;1.00;;;;;;5112118;28;20614;-73
2022/03/09 12:34:36;;;;;;;0.30;0.30;;;18.10;1.00;;;;;;5112649;28;20240;-77
2022/03/09 12:37:07;;;;;;;0.30;0.30;;;18.70;1.00;;;;;;5104101;28;20174;-74
2022/03/09 12:39:33;;;;;;;0.30;0.30;;;18.70;1.00;;;;;;5091421;28;20269;-74
2022/03/09 12:42:01;;;;;;;0.30;0.30;;;17.90;1.00;;;;;;5091785;28;20723;-73
2022/03/09 12:44:30;;;;;;;0.33;0.33;;;19.10;1.00;;;;;;5073780;28;20255;-75
2022/03/09 12:47:00;;;;;;;0.37;0.37;;;19.50;1.00;;;;;;5091731;28;20521;-75
2022/03/09 12:49:35;;;;;;;0.30;0.30;;;19.80;1.00;;;;;;5091390;28;20204;-73
2022/03/09 12:52:02;;;;;;;0.30;0.30;;;19.20;1.00;;;;;;5091791;28;20165;-75
2022/03/09 12:54:43;;;;;;;0.30;0.30;;;20.20;1.00;;;;;;5091535;28;20205;-74
2022/03/09 12:57:16;;;;;;;0.40;0.40;;;18.80;1.00;;;;;;5091686;28;20585;-75
2022/03/09 12:59:53;;;;;;;0.30;0.30;;;18.70;1.00;;;;;;5091046;28;20193;-74
2022/03/09 13:02:22;;;;;;;0.30;0.30;;;19.10;1.00;;;;;;5091707;28;20174;-73